Time;durP1;ratioP1;P1;durP2;ratioP2;P2;SDS_P1;SDS_P2;PMS_P1;PMS_P2;Temp;Humidity;BMP_temperature;BMP_pressure;BME280_temperature;BME280_humidity;BME280_pressure;Samples;Min_cycle;Max_cycle;Signal;HPM_P1;HPM_P2
2022/10/25 00:05:33;;;;;;;2.45;0.93;;;;;;;13.26;78.17;99959.59;1083348;54;20638;-78
2022/10/25 00:06:39;;;;;;;3.35;1.20;;;;;;;13.26;78.16;99959.59;1083800;54;20042;-77
2022/10/25 00:07:44;;;;;;;4.97;1.10;;;;;;;13.37;77.69;99966.50;1083834;54;20038;-77
2022/10/25 00:08:49;;;;;;;3.03;0.95;;;;;;;13.31;77.84;99956.44;1084050;54;20556;-78
2022/10/25 00:09:54;;;;;;;3.33;0.90;;;;;;;13.19;78.75;99955.91;1084029;46;20042;-78
2022/10/25 00:10:55;;;;;;;3.78;1.00;;;;;;;13.29;78.15;99960.28;1084648;39;20702;-78
2022/10/25 00:12:00;;;;;;;2.58;1.00;;;;;;;13.36;77.94;99953.25;1084123;54;20053;-80
2022/10/25 00:13:12;;;;;;;3.50;1.05;;;;;;;13.35;78.06;99951.56;1083695;54;20043;-78
2022/10/25 00:14:18;;;;;;;3.50;0.90;;;;;;;13.47;77.62;99952.97;1084395;39;20410;-78
2022/10/25 00:15:21;;;;;;;3.75;1.20;;;;;;;13.35;77.75;99947.06;1083966;54;20046;-77
2022/10/25 00:16:27;;;;;;;3.45;1.25;;;;;;;13.23;78.43;99959.91;1083850;54;20034;-77
2022/10/25 00:17:29;;;;;;;3.72;1.40;;;;;;;13.25;78.39;99952.56;1083741;54;20046;-78
2022/10/25 00:18:33;;;;;;;3.97;1.40;;;;;;;13.39;78.14;99953.78;1083842;54;20038;-78
2022/10/25 00:19:38;;;;;;;5.15;1.60;;;;;;;13.22;78.38;99958.28;1085454;39;20485;-78
2022/10/25 00:20:39;;;;;;;4.47;1.45;;;;;;;13.24;78.49;99958.91;1083700;54;20564;-77
2022/10/25 00:21:44;;;;;;;4.05;1.80;;;;;;;13.17;78.81;99952.53;1083554;54;20039;-77
2022/10/25 00:22:46;;;;;;;3.63;1.70;;;;;;;13.18;78.42;99950.69;1083439;54;20065;-78
2022/10/25 00:24:00;;;;;;;6.05;1.70;;;;;;;13.13;79.10;99959.22;1083595;54;20058;-78
2022/10/25 00:25:02;;;;;;;3.15;1.33;;;;;;;13.25;78.28;99954.41;1083573;54;20050;-77
2022/10/25 00:26:09;;;;;;;6.03;1.75;;;;;;;13.16;78.80;99958.91;1083408;54;20054;-78
2022/10/25 00:27:11;;;;;;;4.47;1.50;;;;;;;13.06;79.09;99952.84;1083404;54;20057;-78
2022/10/25 00:28:15;;;;;;;4.53;1.27;;;;;;;13.13;79.20;99956.53;1083774;54;20068;-77
2022/10/25 00:29:18;;;;;;;3.50;1.45;;;;;;;13.16;78.95;99948.16;1083688;46;20065;-78
2022/10/25 00:30:23;;;;;;;4.60;1.50;;;;;;;12.97;79.53;99953.81;1083670;54;20030;-78
2022/10/25 00:31:24;;;;;;;6.53;1.50;;;;;;;13.08;79.11;99942.78;1083842;54;20057;-78
2022/10/25 00:32:29;;;;;;;4.70;1.20;;;;;;;13.14;78.86;99943.97;1083561;54;20038;-78
2022/10/25 00:33:31;;;;;;;2.22;1.00;;;;;;;13.17;78.76;99949.03;1083891;54;20038;-79
2022/10/25 00:34:35;;;;;;;3.88;1.38;;;;;;;13.08;78.89;99950.84;1083883;54;20571;-78
2022/10/25 00:35:37;;;;;;;3.38;1.13;;;;;;;13.07;78.91;99955.38;1084163;39;20448;-77
2022/10/25 00:36:43;;;;;;;4.35;1.27;;;;;;;13.21;78.72;99956.59;1083976;54;20689;-78
2022/10/25 00:37:45;;;;;;;3.92;1.20;;;;;;;13.09;78.78;99952.53;1083525;54;20031;-77
2022/10/25 00:38:50;;;;;;;3.75;1.10;;;;;;;13.16;78.50;99956.22;1083879;54;20048;-77
2022/10/25 00:39:54;;;;;;;5.57;1.30;;;;;;;13.25;77.92;99949.88;1083819;54;20041;-78
2022/10/25 00:40:59;;;;;;;4.18;1.13;;;;;;;13.16;78.23;99956.22;1083928;54;20034;-78
2022/10/25 00:42:01;;;;;;;2.65;0.95;;;;;;;13.23;78.13;99957.25;1084117;54;20053;-78
2022/10/25 00:43:05;;;;;;;3.10;0.90;;;;;;;13.22;77.92;99957.41;1083984;54;20057;-78
2022/10/25 00:44:51;;;;;;;3.17;1.05;;;;;;;13.18;78.22;99951.53;1083622;54;20575;-77
2022/10/25 00:45:53;;;;;;;2.38;0.90;;;;;;;13.19;78.05;99950.53;1083219;54;20091;-78
2022/10/25 00:46:57;;;;;;;2.60;1.00;;;;;;;13.23;77.96;99954.56;1084085;39;20429;-77
2022/10/25 00:48:03;;;;;;;2.63;0.90;;;;;;;13.16;78.24;99964.28;1083711;54;20054;-79
2022/10/25 00:49:14;;;;;;;3.28;1.70;;;;;;;13.17;78.20;99962.44;1083906;54;20068;-78
2022/10/25 00:50:32;;;;;;;2.38;0.85;;;;;;;13.31;77.59;99969.03;1083603;54;20536;-77
2022/10/25 00:51:41;;;;;;;2.90;1.35;;;;;;;13.30;77.68;99968.16;1083747;54;20073;-79
2022/10/25 00:52:46;;;;;;;3.92;1.27;;;;;;;13.18;78.02;99962.28;1084011;54;20057;-79
2022/10/25 00:53:51;;;;;;;4.05;1.05;;;;;;;13.40;77.13;99955.47;1083926;54;20065;-79
2022/10/25 00:54:57;;;;;;;4.65;1.02;;;;;;;13.20;77.92;99962.09;1083842;54;20030;-78
2022/10/25 00:56:10;;;;;;;3.25;1.10;;;;;;;13.39;77.16;99958.31;1083801;54;20034;-79
2022/10/25 00:57:17;;;;;;;4.55;1.40;;;;;;;13.24;77.65;99966.97;1084243;54;20026;-78
2022/10/25 00:58:25;;;;;;;6.10;1.40;;;;;;;13.22;77.47;99960.09;1083770;54;20034;-80
2022/10/25 00:59:27;;;;;;;3.33;1.02;;;;;;;13.40;77.51;99957.31;1083971;39;20501;-80
2022/10/25 01:00:33;;;;;;;4.00;1.10;;;;;;;13.54;76.88;99956.66;1083654;54;20046;-79
2022/10/25 01:01:36;;;;;;;3.92;1.20;;;;;;;13.56;76.78;99975.28;1083586;54;20069;-79
2022/10/25 01:02:40;;;;;;;2.80;1.13;;;;;;;13.61;76.58;99967.59;1083845;54;20049;-78
2022/10/25 01:03:45;;;;;;;3.90;1.48;;;;;;;13.64;76.20;99958.34;1083673;54;20049;-77
2022/10/25 01:04:49;;;;;;;2.35;0.90;;;;;;;13.71;76.21;99959.34;1083656;54;20058;-79
2022/10/25 01:05:52;;;;;;;4.57;1.20;;;;;;;13.77;75.84;99969.44;1083496;54;20050;-78
2022/10/25 01:06:57;;;;;;;3.03;1.10;;;;;;;13.76;76.02;99961.53;1083860;54;20042;-79
2022/10/25 01:07:59;;;;;;;3.67;1.20;;;;;;;13.75;75.79;99959.84;1083599;54;20153;-77
2022/10/25 01:09:04;;;;;;;2.75;1.00;;;;;;;13.79;75.95;99970.09;1083572;54;20069;-80
2022/10/25 01:10:09;;;;;;;2.30;0.88;;;;;;;13.79;75.56;99956.66;1085071;39;20464;-77
2022/10/25 01:11:14;;;;;;;3.40;1.10;;;;;;;13.78;75.77;99975.63;1083622;54;20030;-78
2022/10/25 01:12:18;;;;;;;4.55;1.23;;;;;;;13.76;75.86;99969.59;1083653;47;20066;-78
2022/10/25 01:13:22;;;;;;;3.03;1.10;;;;;;;13.57;76.53;99967.06;1083422;54;20034;-77
2022/10/25 01:14:25;;;;;;;3.40;1.10;;;;;;;13.70;76.00;99966.59;1083750;54;20561;-78
2022/10/25 01:15:37;;;;;;;3.15;1.02;;;;;;;13.78;75.47;99963.06;1083434;54;20068;-80
2022/10/25 01:16:47;;;;;;;3.47;1.00;;;;;;;13.49;76.50;99966.22;1083575;39;20183;-79
2022/10/25 01:17:59;;;;;;;3.05;0.90;;;;;;;13.51;76.34;99956.97;1083422;54;20129;-79
2022/10/25 01:19:26;;;;;;;3.70;1.20;;;;;;;13.46;76.66;99953.97;1083579;54;20631;-77
2022/10/25 01:21:04;;;;;;;3.47;1.27;;;;;;;13.48;76.43;99962.69;1083743;54;20043;-77
2022/10/25 01:22:13;;;;;;;3.13;1.00;;;;;;;13.47;76.99;99960.16;1083571;54;20038;-78
2022/10/25 01:23:36;;;;;;;5.13;1.17;;;;;;;13.52;76.41;99953.28;1083498;54;20026;-77
2022/10/25 01:25:03;;;;;;;3.10;1.10;;;;;;;13.54;76.27;99962.03;1083527;54;20049;-78
2022/10/25 01:26:38;;;;;;;3.17;1.00;;;;;;;13.44;76.70;99957.81;1083525;47;20027;-78
2022/10/25 01:28:11;;;;;;;4.10;1.10;;;;;;;13.38;76.86;99956.63;1083637;54;20034;-80
2022/10/25 01:29:36;;;;;;;4.90;1.10;;;;;;;13.25;77.44;99954.41;1083756;54;20046;-78
2022/10/25 01:31:13;;;;;;;3.60;1.15;;;;;;;13.17;77.34;99960.59;1083784;54;20133;-78
2022/10/25 01:32:19;;;;;;;5.25;1.27;;;;;;;13.33;77.03;99953.56;1083900;54;20042;-78
2022/10/25 01:33:29;;;;;;;3.13;1.23;;;;;;;13.37;76.81;99957.63;1083841;54;20039;-79
2022/10/25 01:34:37;;;;;;;3.30;0.98;;;;;;;13.40;76.52;99960.00;1083848;54;20568;-78
2022/10/25 01:35:53;;;;;;;4.40;1.30;;;;;;;13.33;76.83;99961.63;1083880;54;20043;-79
2022/10/25 01:37:07;;;;;;;4.60;1.17;;;;;;;13.34;77.31;99957.94;1083722;54;20046;-78
2022/10/25 01:38:23;;;;;;;3.17;1.33;;;;;;;13.39;77.01;99951.09;1083758;54;20039;-79
2022/10/25 01:39:28;;;;;;;5.00;1.33;;;;;;;13.37;76.70;99947.69;1084245;54;20030;-80
2022/10/25 01:40:38;;;;;;;4.35;1.30;;;;;;;13.37;76.75;99966.50;1084660;54;20627;-79
2022/10/25 01:41:49;;;;;;;3.95;1.55;;;;;;;13.43;76.92;99962.34;1084616;54;20035;-77
2022/10/25 01:43:07;;;;;;;3.58;1.40;;;;;;;13.36;76.98;99958.63;1084574;54;20035;-80
2022/10/25 01:44:21;;;;;;;3.33;1.30;;;;;;;13.29;77.33;99962.97;1084557;54;20077;-78
2022/10/25 01:45:30;;;;;;;3.47;1.25;;;;;;;13.43;77.09;99959.66;1084639;54;20081;-77
2022/10/25 01:46:45;;;;;;;3.25;1.25;;;;;;;13.37;77.23;99960.28;1084721;31;20449;-78
2022/10/25 01:47:50;;;;;;;4.65;1.20;;;;;;;13.43;76.85;99958.84;1083748;54;20042;-79
2022/10/25 01:49:01;;;;;;;6.43;1.92;;;;;;;13.20;77.79;99957.59;1083801;54;20042;-79
2022/10/25 01:50:06;;;;;;;5.15;1.95;;;;;;;13.29;77.40;99954.91;1083842;54;20045;-77
2022/10/25 01:51:12;;;;;;;3.70;1.50;;;;;;;13.24;77.64;99961.59;1084064;54;20056;-78
2022/10/25 01:52:17;;;;;;;6.95;2.17;;;;;;;13.21;77.89;99961.97;1084638;39;20526;-79
2022/10/25 01:53:21;;;;;;;5.22;1.67;;;;;;;13.22;77.65;99960.94;1084552;46;20069;-80
2022/10/25 01:54:25;;;;;;;5.47;1.80;;;;;;;13.21;77.43;99961.09;1083823;54;20034;-78
2022/10/25 01:55:35;;;;;;;3.95;1.40;;;;;;;13.15;78.06;99959.91;1083909;54;20035;-78
2022/10/25 01:56:44;;;;;;;3.92;1.73;;;;;;;13.27;77.36;99961.28;1084161;54;20065;-77
2022/10/25 01:58:11;;;;;;;6.28;1.35;;;;;;;13.24;77.58;99966.97;1084065;54;20065;-79
2022/10/25 01:59:31;;;;;;;5.00;2.08;;;;;;;13.21;77.27;99967.31;1084450;39;20444;-77
2022/10/25 02:00:46;;;;;;;8.40;1.63;;;;;;;13.23;77.52;99959.91;1084225;54;20050;-77
2022/10/25 02:02:00;;;;;;;4.32;1.27;;;;;;;13.26;77.64;99964.97;1084111;54;20030;-77
2022/10/25 02:03:16;;;;;;;4.50;1.88;;;;;;;13.14;77.95;99974.31;1084012;54;20610;-79
2022/10/25 02:04:27;;;;;;;5.32;1.27;;;;;;;13.20;77.85;99970.16;1084063;54;20557;-78
2022/10/25 02:05:44;;;;;;;6.53;2.03;;;;;;;13.18;77.90;99961.41;1084050;54;20064;-79
2022/10/25 02:06:54;;;;;;;4.43;1.67;;;;;;;13.26;77.50;99964.97;1082623;54;20038;-77
2022/10/25 02:08:06;;;;;;;5.35;1.83;;;;;;;13.15;77.70;99964.44;1083492;54;20053;-78
2022/10/25 02:09:15;;;;;;;4.32;1.60;;;;;;;12.99;78.30;99959.88;1084200;46;20114;-78
2022/10/25 02:10:25;;;;;;;5.40;1.63;;;;;;;13.18;77.59;99956.91;1084208;47;20031;-78
2022/10/25 02:11:29;;;;;;;3.40;1.02;;;;;;;13.21;77.61;99956.59;1084507;46;20038;-79
2022/10/25 02:12:43;;;;;;;4.68;1.17;;;;;;;13.26;77.11;99964.97;1084504;54;20034;-79
2022/10/25 02:13:57;;;;;;;2.97;1.05;;;;;;;13.19;77.53;99963.09;1084974;31;20536;-79
2022/10/25 02:15:10;;;;;;;3.03;0.90;;;;;;;13.18;77.54;99956.91;1084209;54;20045;-80
2022/10/25 02:16:18;;;;;;;3.85;0.90;;;;;;;13.24;77.16;99956.25;1084427;46;20050;-78
2022/10/25 02:17:27;;;;;;;4.78;1.00;;;;;;;13.27;76.96;99955.91;1083902;54;20122;-78
2022/10/25 02:18:32;;;;;;;4.45;1.67;;;;;;;13.22;77.22;99962.78;1084335;54;20065;-78
2022/10/25 02:19:41;;;;;;;5.90;1.35;;;;;;;13.12;77.50;99957.56;1084030;54;20778;-80
2022/10/25 02:20:45;;;;;;;3.35;0.90;;;;;;;13.12;77.36;99962.94;1084176;47;20054;-78
2022/10/25 02:21:50;;;;;;;3.30;1.13;;;;;;;13.27;77.00;99961.28;1084344;54;20041;-78
2022/10/25 02:22:53;;;;;;;6.95;1.00;;;;;;;13.23;77.36;99962.59;1084033;54;20126;-78
2022/10/25 02:23:59;;;;;;;3.83;1.23;;;;;;;13.24;76.94;99958.91;1083903;54;20038;-79
2022/10/25 02:25:01;;;;;;;2.42;0.90;;;;;;;13.19;77.33;99963.09;1084020;54;20138;-79
2022/10/25 02:26:08;;;;;;;5.10;1.10;;;;;;;13.32;76.76;99962.66;1084263;46;20034;-78
2022/10/25 02:27:12;;;;;;;3.90;1.02;;;;;;;13.37;76.94;99952.25;1084637;46;20661;-79
2022/10/25 02:28:19;;;;;;;3.25;1.58;;;;;;;13.37;76.69;99955.75;1084388;39;20535;-79
2022/10/25 02:29:24;;;;;;;3.78;1.42;;;;;;;13.22;77.29;99952.91;1085807;31;20588;-78
2022/10/25 02:30:29;;;;;;;3.22;1.10;;;;;;;13.40;76.70;99957.31;1084116;54;20035;-78
2022/10/25 02:31:34;;;;;;;3.15;1.00;;;;;;;13.49;76.14;99958.16;1084271;46;20102;-78
2022/10/25 02:32:41;;;;;;;4.35;1.20;;;;;;;13.37;76.46;99949.56;1083676;54;20038;-78
2022/10/25 02:33:43;;;;;;;3.55;1.10;;;;;;;13.25;76.91;99957.91;1083715;54;20061;-78
2022/10/25 02:34:49;;;;;;;4.80;1.15;;;;;;;13.34;76.74;99960.63;1083679;54;20080;-77
2022/10/25 02:36:08;;;;;;;7.18;1.27;;;;;;;13.22;76.92;99963.63;1084035;39;20578;-79
2022/10/25 02:37:13;;;;;;;4.55;1.08;;;;;;;13.40;76.61;99960.00;1083916;54;20038;-80
2022/10/25 02:38:14;;;;;;;3.83;1.20;;;;;;;13.34;76.50;99957.94;1083813;46;20037;-78
2022/10/25 02:39:19;;;;;;;3.90;1.10;;;;;;;13.45;76.19;99954.97;1084125;54;20034;-78
2022/10/25 02:40:21;;;;;;;4.47;1.27;;;;;;;13.49;76.06;99952.78;1084096;46;20046;-77
2022/10/25 02:41:27;;;;;;;3.50;1.42;;;;;;;13.37;76.28;99960.28;1084098;46;20057;-78
2022/10/25 02:42:28;;;;;;;4.07;1.40;;;;;;;13.38;76.37;99967.34;1084106;54;20091;-78
2022/10/25 02:43:32;;;;;;;4.53;1.50;;;;;;;13.36;76.72;99956.78;1084127;54;20603;-79
2022/10/25 02:44:34;;;;;;;4.45;1.27;;;;;;;13.35;76.48;99963.16;1084204;54;20066;-78
2022/10/25 02:45:39;;;;;;;6.78;1.60;;;;;;;13.45;76.49;99951.47;1084039;54;20042;-77
2022/10/25 02:46:40;;;;;;;4.82;1.55;;;;;;;13.51;76.00;99956.16;1084192;46;20123;-78
2022/10/25 02:47:49;;;;;;;4.22;1.50;;;;;;;13.38;76.46;99957.44;1084117;54;20041;-78
2022/10/25 02:48:50;;;;;;;3.70;1.33;;;;;;;13.48;76.03;99960.03;1084841;31;20532;-78
2022/10/25 02:49:54;;;;;;;3.72;1.40;;;;;;;13.46;76.20;99956.66;1083908;54;20076;-79
2022/10/25 02:50:56;;;;;;;4.07;1.15;;;;;;;13.34;76.83;99953.41;1084156;54;20046;-78
2022/10/25 02:52:00;;;;;;;4.03;1.20;;;;;;;13.39;76.65;99953.78;1086079;46;20049;-81
2022/10/25 02:53:01;;;;;;;3.92;1.10;;;;;;;13.42;76.63;99947.22;1088022;54;20030;-80
2022/10/25 02:54:06;;;;;;;3.25;1.10;;;;;;;13.49;76.11;99952.78;1087775;54;20058;-78
2022/10/25 02:55:08;;;;;;;3.55;1.20;;;;;;;13.47;76.09;99950.28;1088394;39;20555;-78
2022/10/25 02:56:20;;;;;;;3.75;1.10;;;;;;;13.52;75.71;99955.97;1084190;46;20041;-79
2022/10/25 02:57:22;;;;;;;4.45;1.30;;;;;;;13.43;76.00;99953.47;1084232;54;20043;-79
2022/10/25 02:58:26;;;;;;;3.63;1.05;;;;;;;13.48;76.29;99953.78;1083648;54;20031;-79
2022/10/25 02:59:28;;;;;;;3.67;1.10;;;;;;;13.51;76.18;99956.16;1086572;31;20450;-78
2022/10/25 03:00:33;;;;;;;2.92;1.10;;;;;;;13.54;75.74;99955.84;1083960;54;20038;-78
2022/10/25 03:01:35;;;;;;;4.63;1.10;;;;;;;13.55;75.93;99958.34;1083852;54;20053;-78
2022/10/25 03:02:39;;;;;;;3.03;1.02;;;;;;;13.61;75.85;99955.97;1084568;39;20456;-78
2022/10/25 03:03:44;;;;;;;3.15;1.10;;;;;;;13.57;75.93;99947.41;1083875;54;20040;-78
2022/10/25 03:04:49;;;;;;;2.85;0.95;;;;;;;13.53;75.84;99954.97;1083970;54;20588;-78
2022/10/25 03:05:50;;;;;;;4.78;1.23;;;;;;;13.52;76.18;99955.97;1085018;39;20456;-82
2022/10/25 03:06:56;;;;;;;3.22;1.10;;;;;;;13.52;75.88;99955.97;1083944;39;20432;-77
2022/10/25 03:07:57;;;;;;;3.60;0.95;;;;;;;13.61;75.92;99950.59;1083920;47;20565;-78
2022/10/25 03:09:01;;;;;;;4.18;1.10;;;;;;;13.61;75.86;99950.59;1084008;54;20034;-79
2022/10/25 03:10:05;;;;;;;3.35;0.93;;;;;;;13.63;75.53;99952.16;1083844;54;20137;-76
2022/10/25 03:11:10;;;;;;;2.13;0.80;;;;;;;13.66;75.51;99946.41;1083911;54;20034;-77
2022/10/25 03:12:12;;;;;;;3.28;0.90;;;;;;;13.64;75.52;99945.78;1083896;54;20081;-77
2022/10/25 03:13:16;;;;;;;2.80;1.00;;;;;;;13.62;75.85;99946.91;1083803;54;20026;-77
2022/10/25 03:14:18;;;;;;;3.03;0.88;;;;;;;13.61;75.71;99955.97;1083946;54;20042;-77
2022/10/25 03:15:22;;;;;;;2.75;0.93;;;;;;;13.62;75.70;99953.16;1083853;54;20061;-80
2022/10/25 03:16:23;;;;;;;3.08;1.00;;;;;;;13.51;76.11;99954.28;1083915;54;20038;-76
2022/10/25 03:17:34;;;;;;;2.83;0.90;;;;;;;13.54;75.67;99951.28;1083842;54;20049;-77
2022/10/25 03:18:36;;;;;;;3.17;1.00;;;;;;;13.47;76.27;99952.97;1084450;39;20535;-78
2022/10/25 03:19:43;;;;;;;2.35;0.80;;;;;;;13.49;75.97;99947.41;1083901;54;20072;-79
2022/10/25 03:20:44;;;;;;;3.88;1.02;;;;;;;13.48;76.00;99957.34;1083815;54;20138;-78
2022/10/25 03:21:54;;;;;;;3.03;1.08;;;;;;;13.43;76.12;99956.16;1083641;54;20034;-78
2022/10/25 03:22:56;;;;;;;3.10;1.00;;;;;;;13.41;76.64;99956.31;1083535;54;20045;-78
2022/10/25 03:24:01;;;;;;;3.28;0.93;;;;;;;13.48;76.34;99954.66;1083601;54;20034;-78
2022/10/25 03:25:03;;;;;;;3.90;1.10;;;;;;;13.37;76.40;99957.63;1083955;54;20038;-77
2022/10/25 03:26:09;;;;;;;2.72;1.00;;;;;;;13.36;76.42;99955.94;1083898;54;20034;-77
2022/10/25 03:27:11;;;;;;;2.10;0.80;;;;;;;13.35;76.85;99967.66;1083797;54;20046;-78
2022/10/25 03:28:15;;;;;;;2.55;1.00;;;;;;;13.35;76.68;99962.31;1083788;54;20041;-79
2022/10/25 03:29:16;;;;;;;3.92;1.20;;;;;;;13.24;77.05;99961.59;1083576;54;20129;-77
2022/10/25 03:30:21;;;;;;;6.18;1.90;;;;;;;13.27;76.78;99963.16;1083286;54;20034;-78
2022/10/25 03:31:25;;;;;;;2.95;1.00;;;;;;;13.25;76.73;99957.91;1083552;54;20134;-78
2022/10/25 03:32:33;;;;;;;3.78;1.10;;;;;;;13.16;76.91;99964.28;1083515;54;20039;-80
2022/10/25 03:33:35;;;;;;;4.50;1.00;;;;;;;13.19;77.08;99966.63;1083863;54;20046;-78
2022/10/25 03:34:39;;;;;;;3.92;1.08;;;;;;;13.17;76.97;99968.63;1083488;54;20033;-77
2022/10/25 03:35:43;;;;;;;4.95;1.17;;;;;;;13.16;76.96;99964.28;1084328;46;20065;-77
2022/10/25 03:36:47;;;;;;;3.60;1.00;;;;;;;13.15;76.98;99967.97;1083862;54;20027;-78
2022/10/25 03:37:52;;;;;;;6.03;1.45;;;;;;;13.19;76.84;99968.47;1083894;46;20594;-77
2022/10/25 03:38:56;;;;;;;3.17;1.00;;;;;;;13.19;77.29;99963.09;1084283;54;20035;-78
2022/10/25 03:39:57;;;;;;;4.38;1.10;;;;;;;13.21;77.21;99966.47;1084057;54;20050;-78
2022/10/25 03:41:01;;;;;;;2.83;0.95;;;;;;;13.21;77.16;99972.69;1083365;54;20077;-78
2022/10/25 03:42:03;;;;;;;3.40;1.00;;;;;;;13.23;76.81;99967.97;1083899;46;20065;-79
2022/10/25 03:43:07;;;;;;;4.57;1.13;;;;;;;13.20;76.85;99970.16;1083545;54;20069;-78
2022/10/25 03:44:08;;;;;;;3.20;1.05;;;;;;;13.25;76.68;99976.72;1083792;54;20054;-78
2022/10/25 03:45:13;;;;;;;4.68;1.13;;;;;;;13.18;77.16;99973.00;1083823;54;20061;-78
2022/10/25 03:46:17;;;;;;;2.47;0.90;;;;;;;13.24;77.07;99977.72;1083801;54;20061;-78
2022/10/25 03:47:19;;;;;;;4.50;1.33;;;;;;;13.26;77.05;99975.72;1083787;47;20635;-81
2022/10/25 03:48:23;;;;;;;4.10;1.20;;;;;;;13.25;77.02;99976.72;1083789;54;20030;-78
2022/10/25 03:49:25;;;;;;;4.03;1.08;;;;;;;13.30;76.78;99970.03;1083656;54;20133;-78
2022/10/25 03:50:29;;;;;;;3.08;1.10;;;;;;;13.32;76.84;99968.03;1083923;54;20053;-78
2022/10/25 03:51:33;;;;;;;4.03;1.45;;;;;;;13.24;76.67;99975.03;1083871;47;20573;-78
2022/10/25 03:52:37;;;;;;;3.40;1.50;;;;;;;13.22;77.00;99979.75;1083561;54;20034;-79
2022/10/25 03:53:39;;;;;;;7.43;1.75;;;;;;;13.24;76.95;99982.25;1084164;54;20061;-78
2022/10/25 03:54:43;;;;;;;3.90;1.55;;;;;;;13.23;76.88;99986.75;1085557;46;20572;-78
2022/10/25 03:56:01;;;;;;;3.55;1.15;;;;;;;13.21;77.28;99986.13;1085359;54;20038;-78
2022/10/25 03:57:03;;;;;;;3.67;1.60;;;;;;;13.21;77.12;99988.81;1085464;54;20050;-77
2022/10/25 03:58:07;;;;;;;3.40;1.10;;;;;;;13.20;77.12;99992.47;1085316;54;20066;-80
2022/10/25 03:59:09;;;;;;;4.40;1.58;;;;;;;13.19;76.85;99990.81;1085822;54;20069;-77
2022/10/25 04:00:34;;;;;;;3.67;1.20;;;;;;;13.18;77.01;99997.16;1085282;46;20031;-78
2022/10/25 04:01:38;;;;;;;3.42;1.30;;;;;;;13.18;76.96;99991.81;1086420;46;20069;-78
2022/10/25 04:02:39;;;;;;;3.85;1.50;;;;;;;13.23;77.22;99991.31;1085749;54;20054;-78
2022/10/25 04:03:44;;;;;;;3.67;1.23;;;;;;;13.23;77.13;99989.44;1085640;54;20049;-78
2022/10/25 04:04:45;;;;;;;3.65;1.50;;;;;;;13.24;77.02;99991.13;1085383;54;20050;-78
2022/10/25 04:05:53;;;;;;;3.50;1.10;;;;;;;13.22;76.83;99995.84;1086967;54;20038;-79
2022/10/25 04:06:57;;;;;;;4.03;1.30;;;;;;;13.20;77.21;99992.47;1087554;54;20042;-79
2022/10/25 04:08:02;;;;;;;4.35;1.40;;;;;;;13.21;77.16;99998.69;1087929;46;20041;-78
2022/10/25 04:09:04;;;;;;;3.83;1.80;;;;;;;13.23;76.70;100005.56;1087598;54;20023;-78
2022/10/25 04:10:11;;;;;;;3.17;1.20;;;;;;;13.26;77.00;100004.41;1087371;54;20066;-79
2022/10/25 04:11:13;;;;;;;4.75;1.30;;;;;;;13.14;77.43;100003.03;1087822;47;20050;-78
2022/10/25 04:12:17;;;;;;;6.35;1.55;;;;;;;13.03;77.72;100001.50;1087397;54;20035;-80
2022/10/25 04:13:20;;;;;;;5.05;1.10;;;;;;;13.03;77.86;99990.75;1087472;54;20069;-79
2022/10/25 04:14:24;;;;;;;4.82;1.40;;;;;;;13.00;77.92;99991.88;1086671;54;20038;-77
2022/10/25 04:15:26;;;;;;;3.40;1.27;;;;;;;12.97;77.92;99994.06;1085047;54;20053;-79
2022/10/25 04:16:31;;;;;;;5.25;1.52;;;;;;;12.98;78.17;99993.91;1085001;54;20042;-79
2022/10/25 04:17:33;;;;;;;4.53;1.30;;;;;;;12.86;78.33;99987.97;1084931;54;20038;-79
2022/10/25 04:18:38;;;;;;;5.60;1.30;;;;;;;12.83;78.64;99991.00;1085282;46;20142;-79
2022/10/25 04:19:39;;;;;;;3.55;1.30;;;;;;;12.80;78.49;99994.00;1085058;54;20069;-79
2022/10/25 04:20:43;;;;;;;4.85;1.50;;;;;;;12.77;78.70;99994.31;1084505;54;20141;-78
2022/10/25 04:21:45;;;;;;;4.47;1.50;;;;;;;12.77;78.91;99992.47;1083798;54;20042;-79
2022/10/25 04:22:58;;;;;;;4.13;1.00;;;;;;;12.89;78.36;99992.22;1084153;54;20673;-78
2022/10/25 04:23:59;;;;;;;3.90;1.20;;;;;;;12.98;78.33;99993.06;1084081;54;20044;-80
2022/10/25 04:25:04;;;;;;;3.50;1.20;;;;;;;13.01;77.99;99988.22;1084001;54;20891;-78
2022/10/25 04:26:08;;;;;;;4.90;1.65;;;;;;;12.90;78.33;99996.53;1083898;54;20090;-78
2022/10/25 04:27:10;;;;;;;4.07;1.30;;;;;;;12.79;78.73;99995.00;1084154;54;20137;-78
2022/10/25 04:28:15;;;;;;;4.40;1.20;;;;;;;12.72;79.23;99996.66;1083835;54;20057;-78
2022/10/25 04:29:25;;;;;;;4.55;1.40;;;;;;;12.67;79.61;100001.63;1083937;54;20046;-80
2022/10/25 04:30:39;;;;;;;6.75;1.52;;;;;;;12.60;80.11;99999.59;1083318;54;20579;-77
2022/10/25 04:31:45;;;;;;;3.83;1.40;;;;;;;12.54;80.23;100002.94;1084081;54;20077;-79
2022/10/25 04:32:56;;;;;;;4.88;1.60;;;;;;;12.50;80.82;100006.09;1084091;54;20038;-79
2022/10/25 04:34:01;;;;;;;6.63;1.77;;;;;;;12.42;80.81;99993.47;1084037;54;20054;-78
2022/10/25 04:35:14;;;;;;;5.82;1.63;;;;;;;12.51;80.87;100003.22;1084000;54;20057;-78
2022/10/25 04:36:20;;;;;;;7.07;1.70;;;;;;;12.49;80.70;100005.22;1084201;54;20042;-79
2022/10/25 04:37:30;;;;;;;5.82;1.80;;;;;;;12.42;80.94;100004.19;1083869;54;20034;-78
2022/10/25 04:38:38;;;;;;;4.28;1.70;;;;;;;12.35;81.84;100003.13;1084376;54;20038;-79
2022/10/25 04:39:47;;;;;;;4.57;1.60;;;;;;;12.39;81.45;100004.50;1083862;54;20026;-79
2022/10/25 04:41:00;;;;;;;4.45;1.67;;;;;;;12.40;81.35;99998.13;1084069;54;20038;-78
2022/10/25 04:42:06;;;;;;;3.88;1.70;;;;;;;12.38;81.78;100000.13;1083907;54;20057;-78
2022/10/25 04:43:10;;;;;;;5.75;1.60;;;;;;;12.41;81.38;99999.81;1084193;54;20030;-78
2022/10/25 04:44:18;;;;;;;4.65;2.35;;;;;;;12.43;81.31;100003.19;1084027;54;20553;-78
2022/10/25 04:45:20;;;;;;;5.25;2.80;;;;;;;12.43;81.21;100003.19;1085311;54;20669;-79
2022/10/25 04:46:25;;;;;;;4.75;2.42;;;;;;;12.40;81.49;100006.16;1084068;54;20053;-79
2022/10/25 04:47:29;;;;;;;6.15;3.47;;;;;;;12.38;81.51;100008.16;1084680;54;20065;-80
2022/10/25 04:48:34;;;;;;;7.63;4.15;;;;;;;12.34;81.94;100007.63;1086212;54;20038;-78
2022/10/25 04:49:35;;;;;;;7.00;4.15;;;;;;;12.41;81.46;100010.53;1086474;46;20396;-78
2022/10/25 04:50:40;;;;;;;6.85;5.40;;;;;;;12.39;81.46;100007.16;1084227;46;20035;-78
2022/10/25 04:51:41;;;;;;;7.47;3.88;;;;;;;12.35;81.92;100005.81;1084426;54;20072;-80
2022/10/25 04:52:45;;;;;;;8.63;5.97;;;;;;;12.32;81.95;100010.50;1084421;54;20038;-78
2022/10/25 04:53:52;;;;;;;8.98;6.43;;;;;;;12.31;82.01;100007.97;1084300;54;20049;-78
2022/10/25 04:54:56;;;;;;;9.10;7.47;;;;;;;12.33;81.79;100014.00;1084329;54;20034;-78
2022/10/25 04:55:58;;;;;;;9.45;6.65;;;;;;;12.38;82.02;100013.53;1084337;54;20042;-79
2022/10/25 04:57:02;;;;;;;10.52;6.13;;;;;;;12.38;81.85;100002.81;1084495;54;20035;-81
2022/10/25 04:58:04;;;;;;;8.00;5.50;;;;;;;12.42;81.69;100009.53;1084515;54;20077;-78
2022/10/25 04:59:09;;;;;;;7.55;6.50;;;;;;;12.37;81.72;100010.03;1083779;54;20045;-78
2022/10/25 05:00:11;;;;;;;9.23;5.20;;;;;;;12.35;82.02;100012.00;1083842;54;20077;-79
2022/10/25 05:01:19;;;;;;;6.82;3.70;;;;;;;12.40;81.90;100009.72;1083981;54;20133;-78
2022/10/25 05:02:21;;;;;;;5.47;2.72;;;;;;;12.38;81.74;100010.84;1086649;31;20533;-79
2022/10/25 05:03:26;;;;;;;5.57;2.10;;;;;;;12.46;81.34;100010.94;1084165;46;20088;-79
2022/10/25 05:04:30;;;;;;;5.97;2.55;;;;;;;12.40;81.50;100011.53;1083975;54;20103;-77
2022/10/25 05:05:31;;;;;;;5.47;1.90;;;;;;;12.37;81.46;100012.69;1083807;54;20103;-78
2022/10/25 05:06:36;;;;;;;4.53;1.80;;;;;;;12.41;81.45;100022.13;1084314;46;20034;-79
2022/10/25 05:07:37;;;;;;;4.47;2.00;;;;;;;12.33;81.70;100014.84;1082899;54;20041;-79
2022/10/25 05:08:43;;;;;;;6.43;1.75;;;;;;;12.31;81.87;100022.22;1083948;54;20034;-78
2022/10/25 05:09:50;;;;;;;5.15;1.70;;;;;;;12.23;82.01;100021.31;1084449;46;20049;-77
2022/10/25 05:10:53;;;;;;;4.75;1.95;;;;;;;12.23;82.38;100019.47;1084431;54;20556;-79
2022/10/25 05:11:59;;;;;;;4.47;1.65;;;;;;;12.33;81.70;100014.84;1084554;54;20062;-78
2022/10/25 05:13:01;;;;;;;4.45;1.90;;;;;;;12.27;81.82;100023.53;1084474;54;20046;-79
2022/10/25 05:14:05;;;;;;;5.85;1.88;;;;;;;12.31;81.99;100022.22;1084807;46;20041;-79
2022/10/25 05:15:08;;;;;;;4.60;1.98;;;;;;;12.33;81.97;100017.53;1084479;54;20033;-78
2022/10/25 05:16:16;;;;;;;5.05;1.98;;;;;;;12.31;81.82;100018.69;1084391;54;20035;-78
2022/10/25 05:17:17;;;;;;;5.97;2.42;;;;;;;12.29;82.12;100010.78;1084319;54;20038;-78